Time;durP1;ratioP1;P1;durP2;ratioP2;P2;SDS_P1;SDS_P2;PMS_P1;PMS_P2;Temp;Humidity;BMP_temperature;BMP_pressure;BME280_temperature;BME280_humidity;BME280_pressure;Samples;Min_cycle;Max_cycle;Signal;HPM_P1;HPM_P2
2022/06/01 00:00:45;;;;;;;1.70;1.38;;;24.20;51.50;;;;;;5105420;28;20044;-68
2022/06/01 00:03:12;;;;;;;2.20;2.00;;;24.20;51.50;;;;;;5105593;28;20086;-67
2022/06/01 00:05:39;;;;;;;2.38;2.17;;;24.20;51.50;;;;;;5103386;28;20131;-67
2022/06/01 00:08:07;;;;;;;1.92;1.83;;;24.20;51.50;;;;;;5105787;28;20333;-67
2022/06/01 00:10:34;;;;;;;3.55;2.50;;;24.20;51.50;;;;;;5104001;28;20319;-67
2022/06/01 00:13:01;;;;;;;2.35;2.08;;;24.20;51.50;;;;;;5105339;28;20086;-67
2022/06/01 00:15:30;;;;;;;2.60;2.40;;;24.20;51.50;;;;;;5103357;28;20109;-67
2022/06/01 00:17:58;;;;;;;1.75;1.52;;;24.20;51.60;;;;;;5102489;28;20483;-68
2022/06/01 00:20:27;;;;;;;2.40;2.20;;;24.20;51.60;;;;;;5105321;28;20083;-68
2022/06/01 00:22:56;;;;;;;2.33;2.13;;;24.20;51.60;;;;;;5103849;28;20504;-67
2022/06/01 00:25:24;;;;;;;2.30;2.10;;;24.20;51.60;;;;;;5104891;28;20039;-68
2022/06/01 00:27:52;;;;;;;2.40;2.20;;;24.20;51.60;;;;;;5104696;28;20050;-68
2022/06/01 00:30:21;;;;;;;2.03;1.83;;;24.10;51.50;;;;;;5103640;28;20062;-67
2022/06/01 00:32:48;;;;;;;2.20;2.00;;;24.10;51.60;;;;;;5105266;28;20519;-67
2022/06/01 00:35:17;;;;;;;1.88;1.77;;;24.10;51.60;;;;;;5103898;28;20040;-68
2022/06/01 00:37:45;;;;;;;2.53;2.33;;;24.10;51.60;;;;;;5104805;28;20040;-68
2022/06/01 00:40:14;;;;;;;2.40;2.20;;;24.10;51.60;;;;;;5104571;28;20039;-68
2022/06/01 00:42:45;;;;;;;2.58;2.38;;;24.10;51.60;;;;;;5103615;28;20097;-68
2022/06/01 00:45:14;;;;;;;3.90;2.38;;;24.10;51.60;;;;;;5108737;28;20077;-68
2022/06/01 00:47:41;;;;;;;2.42;2.10;;;24.10;51.60;;;;;;5104112;28;20067;-68
2022/06/01 00:50:15;;;;;;;2.67;2.45;;;24.10;51.60;;;;;;5108981;28;20059;-68
2022/06/01 00:52:52;;;;;;;2.30;2.10;;;24.10;51.60;;;;;;5107694;28;20051;-68
2022/06/01 00:55:32;;;;;;;5.13;2.70;;;24.10;51.60;;;;;;5107788;28;20044;-68
2022/06/01 00:58:20;;;;;;;3.42;2.40;;;24.10;51.60;;;;;;5109021;28;20452;-68
2022/06/01 01:00:50;;;;;;;2.50;2.30;;;24.10;51.60;;;;;;5108215;28;20089;-69
2022/06/01 01:03:21;;;;;;;1.80;1.70;;;24.10;51.70;;;;;;5108689;28;20075;-67
2022/06/01 01:06:14;;;;;;;2.28;2.08;;;24.10;51.60;;;;;;5107968;28;20044;-68
2022/06/01 01:08:42;;;;;;;2.80;2.60;;;24.10;51.70;;;;;;5091944;28;20039;-68
2022/06/01 01:11:11;;;;;;;2.10;1.92;;;24.00;51.60;;;;;;5108076;28;20455;-68
2022/06/01 01:13:42;;;;;;;3.05;2.75;;;24.10;51.60;;;;;;5106468;28;20095;-69
2022/06/01 01:16:10;;;;;;;3.83;2.88;;;24.10;51.60;;;;;;5108038;28;20075;-68
2022/06/01 01:18:40;;;;;;;2.60;2.40;;;24.10;51.70;;;;;;5106039;27;20336;-68
2022/06/01 01:21:31;;;;;;;3.10;2.80;;;24.10;51.70;;;;;;5105474;28;20060;-68
2022/06/01 01:24:38;;;;;;;2.53;2.13;;;24.10;51.70;;;;;;5107785;28;20481;-68
2022/06/01 01:27:05;;;;;;;2.83;2.63;;;24.10;51.60;;;;;;5108253;28;20083;-68
2022/06/01 01:29:39;;;;;;;3.05;2.75;;;24.10;51.60;;;;;;5107194;28;20535;-68
2022/06/01 01:32:09;;;;;;;4.35;3.15;;;24.10;51.60;;;;;;5106934;28;20484;-68
2022/06/01 01:34:38;;;;;;;2.95;2.45;;;24.10;51.60;;;;;;5106117;28;20405;-68
2022/06/01 01:37:14;;;;;;;3.38;2.50;;;24.10;51.60;;;;;;5108150;28;20043;-69
2022/06/01 01:39:42;;;;;;;5.03;2.58;;;24.10;51.60;;;;;;5107415;28;20173;-68
2022/06/01 01:42:09;;;;;;;3.85;2.83;;;24.10;51.60;;;;;;5107311;28;20436;-68
2022/06/01 01:44:55;;;;;;;4.03;3.00;;;24.10;51.60;;;;;;5108046;28;20058;-68
2022/06/01 01:47:22;;;;;;;3.42;3.13;;;24.10;52.10;;;;;;5107316;28;20075;-68
2022/06/01 01:49:51;;;;;;;3.28;2.97;;;24.10;51.60;;;;;;5106453;28;20410;-68
2022/06/01 01:52:18;;;;;;;2.90;2.70;;;24.10;51.50;;;;;;5103410;28;20047;-67
2022/06/01 01:55:07;;;;;;;3.17;2.88;;;24.10;51.60;;;;;;5107143;28;20472;-68
2022/06/01 01:57:57;;;;;;;3.60;3.08;;;24.10;51.60;;;;;;5107615;28;20488;-68
2022/06/01 02:00:34;;;;;;;4.65;2.65;;;24.00;51.50;;;;;;5107376;28;20442;-68
2022/06/01 02:03:35;;;;;;;3.50;3.20;;;24.00;51.60;;;;;;5107730;27;20047;-68
2022/06/01 02:06:25;;;;;;;3.47;3.05;;;24.00;51.50;;;;;;5107280;28;20079;-68
2022/06/01 02:08:58;;;;;;;3.30;3.00;;;24.00;51.50;;;;;;5107692;28;20044;-67
2022/06/01 02:14:46;;;;;;;3.85;3.08;;;24.00;51.50;;;;;;5094864;28;20404;-68
2022/06/01 02:17:19;;;;;;;3.00;2.70;;;24.00;51.50;;;;;;5107346;28;20043;-68
2022/06/01 02:19:53;;;;;;;3.47;3.17;;;24.00;51.50;;;;;;5106946;28;20044;-68
2022/06/01 02:22:20;;;;;;;3.88;3.35;;;24.00;51.50;;;;;;5102413;28;20079;-68
2022/06/01 02:24:48;;;;;;;3.20;2.90;;;24.00;51.50;;;;;;5106813;28;20043;-68
2022/06/01 02:27:16;;;;;;;3.22;2.92;;;24.00;51.60;;;;;;5105797;28;20079;-68
2022/06/01 02:29:57;;;;;;;3.15;2.85;;;24.00;51.60;;;;;;5106640;28;20078;-68
2022/06/01 02:32:26;;;;;;;;;;;24.00;51.60;;;;;;5107275;28;20127;-67
2022/06/01 02:34:56;;;;;;;3.63;3.10;;;24.00;51.50;;;;;;5106174;28;20026;-68
2022/06/01 02:37:25;;;;;;;3.60;3.30;;;24.00;51.50;;;;;;5107116;28;20445;-67
2022/06/01 02:39:55;;;;;;;3.80;3.20;;;24.00;51.50;;;;;;5106864;28;20100;-67
2022/06/01 02:42:25;;;;;;;3.03;2.72;;;24.00;51.50;;;;;;5088595;28;20083;-67
2022/06/01 02:44:54;;;;;;;;;;;24.00;51.60;;;;;;5105186;28;20138;-67
2022/06/01 02:47:22;;;;;;;4.05;2.95;;;24.00;51.50;;;;;;5106680;28;20014;-67
2022/06/01 02:49:49;;;;;;;4.18;3.63;;;23.90;51.50;;;;;;5106097;28;20258;-67
2022/06/01 02:52:16;;;;;;;3.92;3.03;;;23.90;51.50;;;;;;5104763;28;20093;-67
2022/06/01 02:54:44;;;;;;;3.25;2.95;;;23.90;52.00;;;;;;5101554;28;20060;-67
2022/06/01 02:57:11;;;;;;;3.40;3.10;;;23.90;51.50;;;;;;5107107;28;20347;-67
2022/06/01 02:59:38;;;;;;;4.03;3.40;;;23.90;51.50;;;;;;5105139;28;20081;-67
2022/06/01 03:02:06;;;;;;;3.88;3.28;;;23.90;51.50;;;;;;5106780;28;20067;-67
2022/06/01 03:04:33;;;;;;;3.30;3.00;;;23.90;51.50;;;;;;5106327;28;20097;-67
2022/06/01 03:07:00;;;;;;;4.28;3.33;;;23.90;51.50;;;;;;5103818;28;20255;-67
2022/06/01 03:09:34;;;;;;;3.55;3.22;;;24.00;51.50;;;;;;5106508;28;20067;-68
2022/06/01 03:12:02;;;;;;;3.88;3.58;;;24.00;51.50;;;;;;5105998;28;20043;-67
2022/06/01 03:14:29;;;;;;;3.42;3.13;;;24.00;51.50;;;;;;5103910;28;20457;-67
2022/06/01 03:16:56;;;;;;;3.95;3.50;;;24.00;51.50;;;;;;5106007;28;20079;-67
2022/06/01 03:19:25;;;;;;;4.07;3.47;;;24.00;51.50;;;;;;5105770;28;20053;-67
2022/06/01 03:21:53;;;;;;;4.50;3.92;;;24.00;51.40;;;;;;5105913;28;20097;-67
2022/06/01 03:24:20;;;;;;;3.80;3.50;;;24.00;51.40;;;;;;5103728;28;20483;-68
2022/06/01 03:26:47;;;;;;;4.03;3.55;;;24.00;51.40;;;;;;5102366;28;20048;-67
2022/06/01 03:29:21;;;;;;;4.50;3.67;;;24.00;51.40;;;;;;5105745;28;20053;-68
2022/06/01 03:31:50;;;;;;;3.80;3.40;;;24.00;51.40;;;;;;5102541;28;20543;-68
2022/06/01 03:34:18;;;;;;;4.43;3.70;;;24.00;51.30;;;;;;5097818;28;20047;-68
2022/06/01 03:36:46;;;;;;;3.85;3.45;;;24.00;51.30;;;;;;5105412;28;20047;-68
2022/06/01 03:39:13;;;;;;;4.43;4.03;;;24.00;51.30;;;;;;5105605;28;20116;-67
2022/06/01 03:41:40;;;;;;;4.28;3.70;;;24.00;51.30;;;;;;5092542;28;20050;-68
2022/06/01 03:47:01;;;;;;;4.85;3.58;;;24.10;51.30;;;;;;5094940;28;20131;-67
2022/06/01 03:49:28;;;;;;;3.83;3.42;;;24.00;51.20;;;;;;5105325;28;20085;-67
2022/06/01 03:51:56;;;;;;;4.40;3.85;;;24.10;51.20;;;;;;5104544;28;20557;-67
2022/06/01 03:54:23;;;;;;;4.75;4.13;;;24.10;51.70;;;;;;5105538;28;20079;-68
2022/06/01 03:56:51;;;;;;;4.70;3.95;;;24.10;51.20;;;;;;5100655;28;20063;-67
2022/06/01 03:59:18;;;;;;;4.28;3.72;;;24.10;51.10;;;;;;5105340;28;20681;-67
2022/06/01 04:01:45;;;;;;;4.13;3.72;;;24.10;51.10;;;;;;5105034;28;20700;-67
2022/06/01 04:04:12;;;;;;;4.20;3.80;;;24.10;51.00;;;;;;5105514;28;20108;-67
2022/06/01 04:06:39;;;;;;;3.80;3.45;;;24.10;51.10;;;;;;5104779;28;20147;-67
2022/06/01 04:09:06;;;;;;;3.58;3.25;;;24.10;50.90;;;;;;5104557;28;20549;-67
2022/06/01 04:11:33;;;;;;;4.05;3.58;;;24.20;50.90;;;;;;5105052;28;20554;-67
2022/06/01 04:14:01;;;;;;;3.50;3.20;;;24.20;50.90;;;;;;5104974;28;20077;-67
2022/06/01 04:16:28;;;;;;;4.65;4.15;;;24.10;50.80;;;;;;5104684;28;20108;-68
2022/06/01 04:18:55;;;;;;;3.42;3.10;;;24.20;50.80;;;;;;5107811;28;20430;-67
2022/06/01 04:21:25;;;;;;;4.25;3.72;;;24.20;50.80;;;;;;5109192;28;20048;-67
2022/06/01 04:23:55;;;;;;;5.05;4.10;;;24.20;50.80;;;;;;5102408;28;20047;-67
2022/06/01 04:26:22;;;;;;;4.38;3.63;;;24.20;50.80;;;;;;5098799;28;20075;-67
2022/06/01 04:28:55;;;;;;;10.85;4.13;;;24.20;50.80;;;;;;5090103;28;20048;-68
2022/06/01 04:31:23;;;;;;;5.28;4.10;;;24.20;50.80;;;;;;5097382;27;20045;-67
2022/06/01 04:33:50;;;;;;;5.05;4.00;;;24.20;50.80;;;;;;5092444;28;20044;-66
2022/06/01 04:36:17;;;;;;;4.63;4.15;;;24.20;50.80;;;;;;5088496;28;20098;-67
2022/06/01 04:38:44;;;;;;;4.25;3.85;;;24.20;50.80;;;;;;5092786;28;20147;-67
2022/06/01 04:41:11;;;;;;;4.20;3.80;;;24.20;50.80;;;;;;5108510;27;20082;-67
2022/06/01 04:43:39;;;;;;;4.45;3.50;;;24.20;50.80;;;;;;5108649;27;20497;-67
2022/06/01 04:46:06;;;;;;;4.35;3.70;;;24.10;50.70;;;;;;5105266;28;20039;-67
2022/06/01 04:48:33;;;;;;;4.53;3.90;;;24.20;50.80;;;;;;5108204;28;20052;-68
2022/06/01 04:51:01;;;;;;;3.70;3.40;;;24.20;50.80;;;;;;5108141;27;20081;-67
2022/06/01 04:53:29;;;;;;;4.50;4.10;;;24.20;50.80;;;;;;5109225;27;20051;-67
2022/06/01 04:55:56;;;;;;;4.22;3.78;;;24.20;50.70;;;;;;5108915;28;20106;-67
2022/06/01 04:58:23;;;;;;;5.10;4.18;;;24.20;50.70;;;;;;5100931;28;20248;-67
2022/06/01 05:00:50;;;;;;;4.25;3.83;;;24.20;50.70;;;;;;5094003;28;20138;-67
2022/06/01 05:03:17;;;;;;;4.60;4.13;;;24.20;50.60;;;;;;5097646;28;20044;-67
2022/06/01 05:05:44;;;;;;;4.40;3.90;;;24.20;50.50;;;;;;5088065;28;20048;-67
2022/06/01 05:08:13;;;;;;;4.78;4.18;;;24.20;50.50;;;;;;5097219;28;20141;-67
2022/06/01 05:10:41;;;;;;;6.95;4.10;;;24.20;50.60;;;;;;5092378;28;20129;-67
2022/06/01 05:13:09;;;;;;;5.28;4.45;;;24.20;50.80;;;;;;5093727;28;20454;-67
2022/06/01 05:15:47;;;;;;;5.53;4.65;;;24.10;51.00;;;;;;5097408;27;20067;-68
2022/06/01 05:18:15;;;;;;;4.63;4.15;;;23.90;51.30;;;;;;5093627;27;20052;-66
2022/06/01 05:20:42;;;;;;;4.25;3.85;;;23.70;51.80;;;;;;5095900;28;20055;-67
2022/06/01 05:23:09;;;;;;;5.68;4.20;;;23.50;52.10;;;;;;5097069;28;20083;-64
2022/06/01 05:25:41;;;;;;;4.53;4.13;;;23.30;51.60;;;;;;5096814;28;20062;-67
2022/06/01 05:28:08;;;;;;;6.22;5.00;;;22.90;51.00;;;;;;5097723;28;20039;-67
2022/06/01 05:30:36;;;;;;;5.10;4.53;;;22.60;50.80;;;;;;5086905;28;20047;-66
2022/06/01 05:33:03;;;;;;;6.88;4.57;;;22.20;50.50;;;;;;5090246;28;20105;-66
2022/06/01 05:35:30;;;;;;;5.53;4.50;;;21.90;50.40;;;;;;5097203;27;20043;-68
2022/06/01 05:37:58;;;;;;;5.22;4.45;;;21.60;50.50;;;;;;5102253;28;20492;-69
2022/06/01 05:40:27;;;;;;;6.90;5.32;;;21.30;51.50;;;;;;5082842;28;20446;-61
2022/06/01 05:42:54;;;;;;;7.28;5.68;;;21.00;52.90;;;;;;5083150;28;20065;-66
2022/06/01 05:45:21;;;;;;;7.65;5.40;;;20.70;52.90;;;;;;5086931;28;20724;-67
2022/06/01 05:47:48;;;;;;;6.10;5.22;;;20.50;52.50;;;;;;5085672;28;20052;-69
2022/06/01 05:50:16;;;;;;;6.55;5.20;;;20.30;53.80;;;;;;5085965;28;20044;-68
2022/06/01 05:52:43;;;;;;;7.38;5.35;;;20.10;53.90;;;;;;5086327;27;20412;-66
2022/06/01 05:55:12;;;;;;;8.38;6.78;;;19.90;52.90;;;;;;5086285;28;20048;-66
2022/06/01 05:57:39;;;;;;;9.02;6.68;;;19.80;54.50;;;;;;5085003;28;20113;-67
2022/06/01 06:00:10;;;;;;;10.52;7.15;;;19.60;55.10;;;;;;5088304;27;20561;-67
2022/06/01 06:02:39;;;;;;;14.27;9.25;;;19.50;54.90;;;;;;5081474;28;20147;-68
2022/06/01 06:06:11;;;;;;;21.13;12.02;;;19.40;54.80;;;;;;5084698;28;20040;-69
2022/06/01 06:07:56;;;;;;;26.40;15.93;;;19.30;57.10;;;;;;5089277;28;20135;-72
2022/06/01 06:10:24;;;;;;;25.92;15.93;;;19.10;57.20;;;;;;5086357;28;20047;-68
2022/06/01 06:12:52;;;;;;;31.92;17.92;;;19.10;57.30;;;;;;5090106;28;20068;-68
2022/06/01 06:15:19;;;;;;;31.13;17.80;;;19.00;58.90;;;;;;5092432;28;20052;-68
2022/06/01 06:17:52;;;;;;;25.83;16.58;;;18.90;58.10;;;;;;5089699;27;20044;-67
2022/06/01 06:20:20;;;;;;;29.65;17.63;;;18.80;58.70;;;;;;5086935;28;20052;-68
2022/06/01 06:22:47;;;;;;;31.85;17.73;;;18.80;59.30;;;;;;5085792;28;20472;-69
2022/06/01 06:25:15;;;;;;;23.25;14.38;;;18.70;60.80;;;;;;5085445;28;20047;-67
2022/06/01 06:27:42;;;;;;;20.27;13.10;;;18.70;59.20;;;;;;5088777;28;20491;-69
2022/06/01 06:30:10;;;;;;;18.90;11.30;;;18.50;58.30;;;;;;5090458;27;20048;-68
2022/06/01 06:32:37;;;;;;;14.55;9.60;;;18.50;58.80;;;;;;5093985;27;20047;-67
2022/06/01 06:35:05;;;;;;;18.23;9.60;;;18.40;58.30;;;;;;5084749;28;20044;-66
2022/06/01 06:37:32;;;;;;;16.65;10.55;;;18.40;57.10;;;;;;5085677;28;20129;-69
2022/06/01 06:39:59;;;;;;;14.52;10.07;;;18.40;58.20;;;;;;5088603;28;20131;-75
2022/06/01 06:42:26;;;;;;;14.82;9.23;;;18.40;58.20;;;;;;5085403;28;20431;-66
2022/06/01 06:44:54;;;;;;;11.23;8.15;;;18.30;57.30;;;;;;5087153;28;20055;-66
2022/06/01 06:47:21;;;;;;;13.05;8.20;;;18.30;57.40;;;;;;5086953;28;20052;-69
2022/06/01 06:49:48;;;;;;;12.02;8.32;;;18.30;58.30;;;;;;5087908;28;20048;-70
2022/06/01 06:52:15;;;;;;;12.95;8.18;;;18.20;57.70;;;;;;5085876;27;20097;-63
2022/06/01 06:54:42;;;;;;;11.77;7.93;;;18.10;57.40;;;;;;5090368;28;20396;-63
2022/06/01 06:57:10;;;;;;;11.48;7.50;;;18.00;58.40;;;;;;5093383;27;20102;-64
2022/06/01 06:59:37;;;;;;;10.20;7.30;;;17.90;58.60;;;;;;5092489;27;20039;-62
2022/06/01 07:02:05;;;;;;;12.70;7.63;;;17.90;57.30;;;;;;5085357;28;21711;-65
2022/06/01 07:04:33;;;;;;;11.30;6.82;;;17.80;59.00;;;;;;5080858;28;20108;-64
2022/06/01 07:07:00;;;;;;;10.40;7.25;;;17.80;59.40;;;;;;5089389;27;20051;-64
2022/06/01 07:09:29;;;;;;;10.52;7.10;;;17.80;58.30;;;;;;5093501;27;20052;-72
2022/06/01 07:11:56;;;;;;;11.73;6.38;;;17.70;57.70;;;;;;5085695;28;20508;-72
2022/06/01 07:14:23;;;;;;;10.90;6.30;;;17.70;59.50;;;;;;5087983;28;20384;-71
2022/06/01 07:16:50;;;;;;;8.60;6.07;;;17.60;59.00;;;;;;5085417;28;20051;-63
2022/06/01 07:19:17;;;;;;;8.52;5.72;;;17.60;58.20;;;;;;5088880;28;20509;-65
2022/06/01 07:21:45;;;;;;;7.70;5.10;;;17.60;59.60;;;;;;5088718;28;20036;-66
2022/06/01 07:24:12;;;;;;;8.77;5.80;;;17.50;60.10;;;;;;5083161;28;20414;-64
2022/06/01 07:26:42;;;;;;;7.20;5.40;;;17.50;59.20;;;;;;5095432;27;20504;-64
2022/06/01 07:29:10;;;;;;;6.45;4.75;;;17.50;59.00;;;;;;5085127;28;20460;-65
2022/06/01 07:31:37;;;;;;;7.15;4.90;;;17.50;60.70;;;;;;5089117;28;20073;-67
2022/06/01 07:34:05;;;;;;;7.72;5.25;;;17.60;60.40;;;;;;5087514;28;20454;-69
2022/06/01 07:36:34;;;;;;;9.13;5.20;;;17.60;59.40;;;;;;5091003;28;20044;-66
2022/06/01 07:44:49;;;;;;;4.32;3.63;;;17.70;58.90;;;;;;5084366;28;20047;-65
2022/06/01 07:47:17;;;;;;;5.68;4.10;;;17.70;59.40;;;;;;5072029;28;20147;-64
2022/06/01 07:50:05;;;;;;;7.00;3.60;;;17.80;59.60;;;;;;5079901;28;20052;-63
2022/06/01 07:52:52;;;;;;;3.90;3.08;;;17.80;58.70;;;;;;5089178;28;20131;-64
2022/06/01 07:55:20;;;;;;;3.97;3.05;;;17.80;58.90;;;;;;5085801;28;20127;-62
2022/06/01 07:57:47;;;;;;;3.47;2.97;;;17.90;59.80;;;;;;5086837;28;20127;-63
2022/06/01 08:00:15;;;;;;;2.53;2.33;;;17.90;59.20;;;;;;5084905;28;20040;-62
2022/06/01 08:02:42;;;;;;;3.35;2.42;;;17.90;58.70;;;;;;5084552;28;20083;-62
2022/06/01 08:05:11;;;;;;;6.22;2.60;;;17.90;59.10;;;;;;5088177;28;20420;-62
2022/06/01 08:07:38;;;;;;;3.03;2.50;;;17.90;59.10;;;;;;5087628;28;20051;-62
2022/06/01 08:10:06;;;;;;;2.35;2.15;;;17.90;58.40;;;;;;5082638;28;20127;-62
2022/06/01 08:15:21;;;;;;;3.53;2.13;;;17.90;59.30;;;;;;5088190;28;20082;-65
2022/06/01 08:17:57;;;;;;;2.30;2.10;;;17.90;59.60;;;;;;5085877;28;20844;-61
2022/06/01 08:20:26;;;;;;;2.00;1.85;;;17.90;59.00;;;;;;5087713;28;20096;-63
2022/06/01 08:22:54;;;;;;;2.03;1.83;;;18.00;59.10;;;;;;5092730;28;20052;-64
2022/06/01 08:25:23;;;;;;;2.17;1.95;;;18.00;58.70;;;;;;5093817;28;20043;-63
2022/06/01 08:27:50;;;;;;;3.67;2.08;;;18.00;58.80;;;;;;5088082;28;20051;-63
2022/06/01 08:30:20;;;;;;;1.60;1.42;;;18.00;59.20;;;;;;5088187;28;22068;-65
2022/06/01 08:32:48;;;;;;;2.50;1.90;;;18.10;59.10;;;;;;5091872;28;20792;-64
2022/06/01 08:35:18;;;;;;;2.28;2.05;;;18.10;59.00;;;;;;5089017;28;20123;-72
2022/06/01 08:37:46;;;;;;;1.67;1.35;;;18.20;59.30;;;;;;5086339;28;20104;-70
2022/06/01 08:40:17;;;;;;;5.00;1.50;;;18.20;58.90;;;;;;5088994;28;20079;-67
2022/06/01 08:42:56;;;;;;;;;;;18.20;58.70;;;;;;5089100;28;20089;-65
2022/06/01 08:45:25;;;;;;;2.33;1.63;;;18.20;59.40;;;;;;5086528;28;20006;-67
2022/06/01 08:47:53;;;;;;;3.92;1.52;;;18.10;59.30;;;;;;5086146;28;20480;-64
2022/06/01 08:50:28;;;;;;;1.73;1.30;;;18.10;58.90;;;;;;5089854;28;20085;-63
2022/06/01 08:53:01;;;;;;;2.00;1.70;;;18.10;58.80;;;;;;5088308;28;20133;-67
2022/06/01 08:55:40;;;;;;;1.65;1.02;;;18.10;58.50;;;;;;5094313;28;20079;-61
2022/06/01 08:58:15;;;;;;;2.80;1.30;;;18.00;59.00;;;;;;5092076;28;20050;-60
2022/06/01 09:00:50;;;;;;;1.60;1.20;;;18.00;59.60;;;;;;5089919;28;20044;-64
2022/06/01 09:03:31;;;;;;;1.15;1.15;;;18.00;58.80;;;;;;5088964;28;20051;-64
2022/06/01 09:06:17;;;;;;;1.48;1.38;;;18.00;58.70;;;;;;5091396;28;20091;-64
2022/06/01 09:08:54;;;;;;;1.80;1.08;;;18.00;59.10;;;;;;5091907;28;20565;-67
2022/06/01 09:11:37;;;;;;;2.10;1.10;;;17.90;59.20;;;;;;5092695;28;20109;-66
2022/06/01 09:14:33;;;;;;;2.38;1.23;;;17.90;59.00;;;;;;5083754;28;20048;-67
2022/06/01 09:17:02;;;;;;;1.33;0.80;;;17.90;58.60;;;;;;5092389;28;20664;-67
2022/06/01 09:22:37;;;;;;;3.10;1.27;;;17.90;59.30;;;;;;5089447;28;20052;-64
2022/06/01 09:22:37;;;;;;;1.13;0.80;;;18.00;59.20;;;;;;5090447;28;20093;-65
2022/06/01 09:25:14;;;;;;;1.23;0.73;;;17.90;59.20;;;;;;5093313;28;20099;-64
2022/06/01 09:27:59;;;;;;;1.05;0.90;;;17.90;59.60;;;;;;5089768;28;20048;-65
2022/06/01 09:30:33;;;;;;;0.68;0.68;;;17.90;59.80;;;;;;5095312;28;20048;-64
2022/06/01 09:33:26;;;;;;;2.35;1.02;;;18.00;59.50;;;;;;5088656;28;20176;-65
2022/06/01 09:36:23;;;;;;;0.75;0.75;;;17.90;59.40;;;;;;5089358;28;20064;-63
2022/06/01 09:38:57;;;;;;;1.55;0.90;;;18.00;59.10;;;;;;5086796;28;20180;-63
2022/06/01 09:41:31;;;;;;;0.70;0.60;;;18.00;59.60;;;;;;5088232;28;20083;-65
2022/06/01 09:44:05;;;;;;;1.13;1.00;;;17.90;59.40;;;;;;5088333;27;20058;-66
2022/06/01 09:46:47;;;;;;;1.05;0.95;;;18.00;59.40;;;;;;5087004;27;20081;-65
2022/06/01 09:49:30;;;;;;;0.77;0.77;;;18.00;59.10;;;;;;5088827;28;20113;-62
2022/06/01 09:52:13;;;;;;;0.80;0.80;;;18.00;59.20;;;;;;5090729;28;20047;-66
2022/06/01 09:54:51;;;;;;;0.82;0.60;;;18.10;59.40;;;;;;5094452;28;20080;-63
2022/06/01 09:57:31;;;;;;;1.00;0.60;;;18.10;58.70;;;;;;5090323;28;20508;-68
2022/06/01 10:06:26;;;;;;;2.35;0.75;;;18.10;58.10;;;;;;5085920;27;20496;-68
2022/06/01 10:09:02;;;;;;;0.93;0.90;;;18.10;58.40;;;;;;5089044;28;20389;-69
2022/06/01 10:11:40;;;;;;;2.67;0.75;;;18.10;57.70;;;;;;5089225;28;20400;-69
2022/06/01 10:14:21;;;;;;;0.60;0.60;;;18.10;57.90;;;;;;5089507;28;20492;-69
2022/06/01 10:17:22;;;;;;;0.73;0.63;;;18.10;58.50;;;;;;5083737;28;20117;-69
2022/06/01 10:20:10;;;;;;;0.70;0.70;;;18.10;58.70;;;;;;5083124;28;20081;-69
2022/06/01 10:22:49;;;;;;;0.60;0.60;;;18.10;58.30;;;;;;5089163;28;20058;-68
2022/06/01 10:25:30;;;;;;;0.82;0.80;;;18.10;58.20;;;;;;5084881;28;20063;-68
2022/06/01 10:28:02;;;;;;;2.00;1.17;;;18.10;58.20;;;;;;5086095;28;20538;-67
2022/06/01 10:30:52;;;;;;;2.35;0.70;;;18.10;58.10;;;;;;5089719;28;20044;-65
2022/06/01 10:33:33;;;;;;;0.65;0.65;;;18.10;57.70;;;;;;5089147;28;20058;-65
2022/06/01 10:36:16;;;;;;;0.57;0.57;;;18.10;57.90;;;;;;5090554;28;20074;-66
2022/06/01 10:38:56;;;;;;;0.52;0.52;;;18.10;58.40;;;;;;5084543;28;20051;-66
2022/06/01 10:41:32;;;;;;;2.77;0.70;;;18.10;58.50;;;;;;5088298;28;20060;-65
2022/06/01 10:44:16;;;;;;;1.13;0.60;;;18.10;58.90;;;;;;5088294;28;20040;-66
2022/06/01 10:46:53;;;;;;;0.50;0.50;;;18.10;59.30;;;;;;5087316;28;20048;-66
2022/06/01 10:49:51;;;;;;;0.73;0.68;;;18.10;59.20;;;;;;5083983;28;20449;-66
2022/06/01 10:52:34;;;;;;;0.55;0.50;;;18.10;58.80;;;;;;5101509;27;20040;-67
2022/06/01 10:55:12;;;;;;;0.52;0.52;;;18.20;59.10;;;;;;5086694;28;20059;-67
2022/06/01 10:57:43;;;;;;;3.60;0.70;;;18.20;58.60;;;;;;5085131;28;20539;-67
2022/06/01 11:00:15;;;;;;;0.80;0.70;;;18.20;58.40;;;;;;5085763;28;20050;-66
2022/06/01 11:03:17;;;;;;;0.55;0.55;;;18.20;58.30;;;;;;5073130;28;20097;-68
2022/06/01 11:06:04;;;;;;;0.60;0.60;;;18.20;58.20;;;;;;5091578;28;20044;-67
2022/06/01 11:09:06;;;;;;;0.57;0.57;;;18.20;58.20;;;;;;5089656;28;20454;-68
2022/06/01 11:12:12;;;;;;;0.57;0.57;;;18.20;58.10;;;;;;5088399;28;20048;-68
2022/06/01 11:15:14;;;;;;;1.50;0.70;;;18.20;58.00;;;;;;5088378;28;20114;-65
2022/06/01 11:17:49;;;;;;;0.95;0.50;;;18.20;58.40;;;;;;5088130;28;20079;-68
2022/06/01 11:20:44;;;;;;;0.73;0.73;;;18.20;58.90;;;;;;5087382;28;20087;-68
2022/06/01 11:23:49;;;;;;;0.52;0.50;;;18.20;58.50;;;;;;5087981;28;20591;-68
2022/06/01 11:26:49;;;;;;;2.08;0.70;;;18.20;58.90;;;;;;5092229;28;20048;-67
2022/06/01 11:29:42;;;;;;;0.70;0.70;;;18.30;58.90;;;;;;5090615;27;20066;-72
2022/06/01 11:32:19;;;;;;;0.60;0.45;;;18.30;59.00;;;;;;5086518;28;20500;-70
2022/06/01 11:35:06;;;;;;;1.92;0.80;;;18.30;58.80;;;;;;5086545;28;20101;-67
2022/06/01 11:37:40;;;;;;;0.52;0.52;;;18.40;59.00;;;;;;5086459;28;20551;-66
2022/06/01 11:40:16;;;;;;;5.38;0.90;;;18.40;59.00;;;;;;5086076;28;20044;-68
2022/06/01 11:42:57;;;;;;;0.57;0.57;;;18.50;59.00;;;;;;5091340;28;20125;-65
2022/06/01 11:45:35;;;;;;;1.80;0.90;;;18.50;59.10;;;;;;5086602;28;20671;-67
2022/06/01 11:48:07;;;;;;;1.42;0.88;;;18.50;59.60;;;;;;5088655;28;20117;-67
2022/06/01 11:50:57;;;;;;;1.65;0.80;;;18.50;59.10;;;;;;5087469;28;20072;-64
2022/06/01 11:53:43;;;;;;;2.53;0.60;;;18.60;59.10;;;;;;5078991;28;20047;-66
2022/06/01 11:56:44;;;;;;;0.60;0.60;;;18.60;59.20;;;;;;5083388;28;20066;-65
2022/06/01 11:59:44;;;;;;;2.85;0.70;;;18.60;58.90;;;;;;5087829;28;20052;-67
2022/06/01 12:02:59;;;;;;;0.95;0.85;;;18.60;59.10;;;;;;5092240;28;20488;-67
2022/06/01 12:05:32;;;;;;;2.45;0.68;;;18.50;59.10;;;;;;5089735;28;20059;-67
2022/06/01 12:08:22;;;;;;;0.57;0.57;;;18.60;59.10;;;;;;5094357;28;20468;-70
2022/06/01 12:11:00;;;;;;;0.73;0.55;;;18.50;58.70;;;;;;5086814;28;20044;-65
2022/06/01 12:13:51;;;;;;;2.58;0.50;;;18.60;59.10;;;;;;5090415;28;20062;-67
2022/06/01 12:16:26;;;;;;;0.80;0.80;;;18.60;59.20;;;;;;5082735;28;20492;-67
2022/06/01 12:19:11;;;;;;;1.38;1.15;;;18.60;59.50;;;;;;5083607;28;20530;-68
2022/06/01 12:22:01;;;;;;;0.52;0.50;;;18.60;60.50;;;;;;5085935;28;20450;-69
2022/06/01 12:30:23;;;;;;;0.70;0.70;;;18.80;59.90;;;;;;5084931;28;20055;-66
2022/06/01 12:33:10;;;;;;;2.13;0.70;;;18.80;59.50;;;;;;5084647;28;20448;-66
2022/06/01 12:35:46;;;;;;;0.65;0.65;;;18.80;59.30;;;;;;5086403;28;20052;-64
2022/06/01 12:38:23;;;;;;;0.65;0.60;;;18.80;59.50;;;;;;5092018;28;20072;-64
2022/06/01 12:40:59;;;;;;;1.63;0.50;;;18.80;59.30;;;;;;5092189;28;20051;-63
2022/06/01 12:43:26;;;;;;;0.68;0.50;;;18.90;59.30;;;;;;5091310;27;20039;-64
2022/06/01 12:45:55;;;;;;;0.60;0.60;;;18.90;59.40;;;;;;5086310;27;20048;-63
2022/06/01 12:48:23;;;;;;;0.70;0.50;;;18.90;59.50;;;;;;5093169;27;20492;-65
2022/06/01 12:51:01;;;;;;;0.63;0.63;;;18.90;59.60;;;;;;5094048;27;20109;-66
2022/06/01 12:53:51;;;;;;;0.65;0.65;;;19.00;59.50;;;;;;5089776;28;20492;-64
2022/06/01 12:56:27;;;;;;;0.70;0.70;;;19.00;59.60;;;;;;5090530;28;20078;-64
2022/06/01 12:58:56;;;;;;;1.35;0.50;;;19.00;60.10;;;;;;5094278;28;20036;-62
2022/06/01 13:01:32;;;;;;;0.45;0.45;;;19.00;60.20;;;;;;5092843;27;20044;-62
2022/06/01 13:04:01;;;;;;;0.40;0.40;;;19.10;59.60;;;;;;5090770;28;20126;-62
2022/06/01 13:06:32;;;;;;;0.95;0.40;;;19.10;59.40;;;;;;5092555;28;20078;-64
2022/06/01 13:09:07;;;;;;;0.55;0.55;;;19.10;59.70;;;;;;5088848;28;20450;-64
2022/06/01 13:11:35;;;;;;;0.68;0.68;;;19.10;59.40;;;;;;5087290;28;20056;-66
2022/06/01 13:14:06;;;;;;;0.95;0.60;;;19.10;59.40;;;;;;5086518;28;20052;-64
2022/06/01 13:16:40;;;;;;;0.75;0.52;;;19.20;59.20;;;;;;5086985;28;20044;-64
2022/06/01 13:19:26;;;;;;;0.70;0.70;;;19.20;59.10;;;;;;5091999;28;20060;-62
2022/06/01 13:22:15;;;;;;;2.17;0.57;;;19.20;58.90;;;;;;5090188;28;20036;-67
2022/06/01 13:24:47;;;;;;;0.63;0.50;;;19.20;59.00;;;;;;5083454;28;20504;-61
2022/06/01 13:27:21;;;;;;;1.90;0.65;;;19.20;58.90;;;;;;5081613;27;20146;-61
2022/06/01 13:29:52;;;;;;;0.57;0.57;;;19.10;58.80;;;;;;5084335;27;20497;-63
2022/06/01 13:32:30;;;;;;;0.50;0.50;;;19.10;58.90;;;;;;5086150;28;20032;-61
2022/06/01 13:35:16;;;;;;;2.10;0.75;;;19.20;59.10;;;;;;5093262;28;20586;-64
2022/06/01 13:37:44;;;;;;;0.85;0.85;;;19.20;59.40;;;;;;5092833;27;20174;-64
2022/06/01 13:40:32;;;;;;;0.82;0.70;;;19.20;59.60;;;;;;5089218;27;20044;-62
2022/06/01 13:43:16;;;;;;;1.15;0.95;;;19.20;59.30;;;;;;5088234;28;20721;-65
2022/06/01 13:45:57;;;;;;;0.50;0.50;;;19.20;59.10;;;;;;5088613;28;20101;-65